< Typhoon 198615 1986 Season Typhoon 198617 >
Typhoon 198616 (ABBY)
General InformationTrack Information on Google MapsDetailed Wind InformationList of All Images || Disaster Info.ResourceGoogle EarthGE AnimationAtom FeedGeoJSON
Detalied Best Track (Time Zone = UTC)
Year Month Day Hour Lat. Long. Pressure (hPa) Wind (kt) Class Image Chart
1986 9 12 00 10.5 149.0 1004 0 2 Image Chart
1986 9 12 06 10.7 148.3 1002 0 2 Image Chart
1986 9 12 12 11.0 147.5 1002 0 2 Image Chart
1986 9 12 18 11.3 146.5 1000 0 2 Image Chart
1986 9 13 00 11.5 145.5 1000 0 2 Image Chart
1986 9 13 06 12.0 144.3 998 0 2 Image Chart
1986 9 13 12 12.6 143.4 996 0 2 Image Chart
1986 9 13 18 13.4 141.9 994 0 2 Image Chart
1986 9 14 00 14.2 140.4 992 40 3 Image Chart
1986 9 14 06 15.0 138.8 990 40 3 Image Chart
1986 9 14 12 15.7 137.2 990 40 3 Image Chart
1986 9 14 18 16.3 135.6 990 40 3 Image Chart
1986 9 15 00 17.0 134.0 990 45 3 Image Chart
1986 9 15 06 17.6 133.0 985 50 4 Image Chart
1986 9 15 12 18.1 132.0 980 50 4 Image Chart
1986 9 15 18 18.4 131.1 980 50 4 Image Chart
1986 9 16 00 18.7 130.2 975 55 4 Image Chart
1986 9 16 06 18.9 129.5 975 65 5 Image Chart
1986 9 16 12 19.2 128.6 975 65 5 Image Chart
1986 9 16 18 19.4 127.8 970 65 5 Image Chart
1986 9 17 00 19.5 127.2 965 70 5 Image Chart
1986 9 17 06 20.1 126.7 960 70 5 Image Chart
1986 9 17 12 20.9 126.0 955 75 5 Image Chart
1986 9 17 18 21.0 125.1 950 75 5 Image Chart
1986 9 18 00 21.2 124.5 945 80 5 Image Chart
1986 9 18 06 21.8 123.7 945 85 5 Image Chart
1986 9 18 12 22.2 122.9 945 85 5 Image Chart
1986 9 18 18 22.6 122.2 945 80 5 Image Chart
1986 9 19 00 23.1 121.7 945 80 5 Image Chart
1986 9 19 06 24.0 121.3 965 75 5 Image Chart
1986 9 19 12 24.9 120.5 980 65 5 Image Chart
1986 9 19 18 25.8 120.9 980 65 5 Image Chart
1986 9 20 00 26.5 121.3 985 55 4 Image Chart
1986 9 20 06 28.0 122.5 990 50 4 Image Chart
1986 9 20 12 30.0 124.5 996 0 6 Image Chart
1986 9 20 18 33.0 127.0 1000 0 6 Image Chart
1986 9 21 00 35.0 129.0 1000 0 6 Image Chart
1986 9 21 06 38.0 132.0 996 0 6 Image Chart
1986 9 21 12 41.0 135.0 994 0 6 Image Chart
1986 9 21 18 43.0 137.5 992 0 6 Image Chart
1986 9 22 00 45.0 140.0 988 0 6 Image Chart
1986 9 22 06 46.5 142.0 984 0 6 Image Chart
1986 9 22 12 48.0 144.0 984 0 6 Image Chart
1986 9 22 18 49.0 145.0 988 0 6 Image Chart
1986 9 23 00 50.5 146.0 992 0 6 Image Chart
1986 9 23 06 51.5 147.0 992 0 6 Image Chart
1986 9 23 12 52.0 147.5 996 0 6 Image Chart
1986 9 23 18 53.0 148.0 996 0 6 Image Chart
1986 9 24 00 55.0 150.0 1000 0 6 Image Chart
Japan Meteorological Agency Best Track Data | Correction Date : 1992-10-21
< Typhoon 198615 1986 Season Typhoon 198617 >

Help